Time;durP1;ratioP1;P1;durP2;ratioP2;P2;SDS_P1;SDS_P2;PMS_P1;PMS_P2;Temp;Humidity;BMP_temperature;BMP_pressure;BME280_temperature;BME280_humidity;BME280_pressure;Samples;Min_cycle;Max_cycle;Signal;HPM_P1;HPM_P2
2022/01/14 00:00:52;;;;;;;1.73;1.63;;;-0.20;98.00;;;;;;5070607;28;20544;-65
2022/01/14 00:03:19;;;;;;;1.50;1.47;;;-0.40;98.00;;;;;;5069797;28;20879;-65
2022/01/14 00:05:49;;;;;;;2.60;1.47;;;-0.50;98.00;;;;;;5071370;28;20545;-64
2022/01/14 00:08:16;;;;;;;2.03;1.57;;;-0.50;98.00;;;;;;5070957;28;20557;-65
2022/01/14 00:10:48;;;;;;;1.77;1.57;;;-0.40;98.00;;;;;;5071190;28;20544;-65
2022/01/14 00:13:38;;;;;;;2.87;1.80;;;-0.50;98.00;;;;;;5071184;28;20455;-66
2022/01/14 00:16:05;;;;;;;3.20;1.77;;;-0.60;98.00;;;;;;5071100;28;20452;-66
2022/01/14 00:18:32;;;;;;;5.30;2.50;;;-0.60;98.00;;;;;;5071210;28;20477;-68
2022/01/14 00:21:01;;;;;;;1.70;1.60;;;-0.50;98.00;;;;;;5070975;28;20579;-67
2022/01/14 00:23:32;;;;;;;2.00;1.83;;;-0.40;98.00;;;;;;5071099;28;20946;-68
2022/01/14 00:31:48;;;;;;;4.37;2.10;;;-0.40;98.00;;;;;;5070688;28;20457;-68
2022/01/14 00:34:16;;;;;;;2.83;2.03;;;-0.40;98.00;;;;;;5074820;28;20491;-68
2022/01/14 00:36:44;;;;;;;1.50;1.30;;;-0.50;98.00;;;;;;5074772;28;20508;-68
2022/01/14 00:39:13;;;;;;;1.52;1.50;;;-0.60;98.00;;;;;;5073546;28;20464;-67
2022/01/14 00:41:40;;;;;;;1.87;1.27;;;-0.60;98.00;;;;;;5073486;28;20276;-68
2022/01/14 00:44:11;;;;;;;1.60;1.53;;;-0.60;98.00;;;;;;5074775;28;20494;-67
2022/01/14 00:46:40;;;;;;;1.33;1.33;;;-0.50;98.00;;;;;;5073245;28;20809;-67
2022/01/14 00:49:08;;;;;;;2.25;1.55;;;-0.50;98.00;;;;;;5074632;28;20515;-67
2022/01/14 00:51:35;;;;;;;1.33;1.27;;;-0.60;98.00;;;;;;5073223;28;20216;-68
2022/01/14 00:54:03;;;;;;;1.63;1.53;;;-0.70;98.00;;;;;;5074655;28;20951;-68
2022/01/14 00:56:33;;;;;;;1.40;1.23;;;-0.70;98.00;;;;;;5074495;28;20497;-68
2022/01/14 00:59:15;;;;;;;1.73;1.50;;;-0.80;98.00;;;;;;5074505;28;20482;-67
2022/01/14 01:01:44;;;;;;;2.43;2.30;;;-0.70;98.00;;;;;;5073294;28;20481;-67
2022/01/14 01:04:12;;;;;;;2.50;1.70;;;-0.70;98.00;;;;;;5074264;28;20457;-68
2022/01/14 01:06:40;;;;;;;1.20;1.20;;;-0.60;98.00;;;;;;5074231;28;20205;-66
2022/01/14 01:09:13;;;;;;;1.10;1.10;;;-0.60;98.00;;;;;;5073981;28;20839;-68
2022/01/14 01:11:46;;;;;;;1.10;1.00;;;-0.60;98.00;;;;;;5074056;28;20486;-67
2022/01/14 01:14:17;;;;;;;2.23;2.03;;;-0.50;98.00;;;;;;5074051;28;20523;-67
2022/01/14 01:16:45;;;;;;;1.73;1.30;;;-0.50;98.00;;;;;;5073655;28;20456;-67
2022/01/14 01:19:12;;;;;;;2.13;1.97;;;-0.50;98.00;;;;;;5073724;28;20472;-68
2022/01/14 01:21:40;;;;;;;2.20;1.57;;;-0.60;98.00;;;;;;5073843;28;21005;-67
2022/01/14 01:24:09;;;;;;;1.30;1.30;;;-0.70;98.00;;;;;;5073339;28;20958;-68
2022/01/14 01:26:39;;;;;;;1.37;1.37;;;-0.70;98.00;;;;;;5073652;28;20461;-68
2022/01/14 01:29:29;;;;;;;2.17;1.60;;;-0.60;98.00;;;;;;5073749;28;20451;-67
2022/01/14 01:31:55;;;;;;;1.83;1.73;;;-0.70;98.00;;;;;;5073432;28;20504;-67
2022/01/14 01:34:24;;;;;;;1.85;1.60;;;-0.80;98.00;;;;;;5073718;28;20497;-68
2022/01/14 01:36:54;;;;;;;3.63;2.53;;;-0.70;98.00;;;;;;5073347;28;20212;-67
2022/01/14 01:39:24;;;;;;;1.10;0.93;;;-0.70;98.00;;;;;;5073523;28;20485;-69
2022/01/14 01:41:53;;;;;;;1.70;1.33;;;-0.60;98.00;;;;;;5073313;28;20578;-67
2022/01/14 01:44:22;;;;;;;2.80;1.90;;;-0.60;98.00;;;;;;5072433;28;20918;-68
2022/01/14 01:46:50;;;;;;;3.23;2.77;;;-0.60;98.00;;;;;;5073272;28;20956;-68
2022/01/14 01:49:20;;;;;;;1.63;1.57;;;-0.70;98.00;;;;;;5073450;28;20543;-69
2022/01/14 01:51:49;;;;;;;3.13;1.97;;;-0.70;98.00;;;;;;5072915;28;20531;-67
2022/01/14 01:54:18;;;;;;;2.07;1.93;;;-0.80;98.00;;;;;;5073370;28;20443;-68
2022/01/14 01:56:45;;;;;;;2.43;2.13;;;-0.80;98.00;;;;;;5073217;28;20597;-68
2022/01/14 01:59:12;;;;;;;1.67;1.53;;;-0.90;98.00;;;;;;5073304;28;20485;-67
2022/01/14 02:01:40;;;;;;;1.57;1.53;;;-0.90;98.00;;;;;;5072971;28;20581;-68
2022/01/14 02:04:08;;;;;;;2.30;1.70;;;-0.80;98.00;;;;;;5073186;28;20505;-67
2022/01/14 02:06:38;;;;;;;2.00;1.50;;;-0.70;98.00;;;;;;5073028;28;20452;-68
2022/01/14 02:09:05;;;;;;;1.37;1.30;;;-0.70;98.00;;;;;;5073047;28;20892;-68
2022/01/14 02:11:32;;;;;;;1.67;1.63;;;-0.70;98.00;;;;;;5072757;28;20455;-68
2022/01/14 02:14:04;;;;;;;1.10;1.00;;;-0.60;98.00;;;;;;5072815;28;20491;-67
2022/01/14 02:16:34;;;;;;;1.30;1.10;;;-0.60;98.00;;;;;;5073037;28;20542;-68
2022/01/14 02:19:16;;;;;;;5.93;1.83;;;-0.50;98.00;;;;;;5071631;28;20531;-68
2022/01/14 02:27:18;;;;;;;2.00;1.73;;;-0.70;98.00;;;;;;5070885;28;20942;-67
2022/01/14 02:29:45;;;;;;;2.27;2.07;;;-0.80;98.00;;;;;;5071428;28;20484;-67
2022/01/14 02:32:12;;;;;;;1.20;1.20;;;-0.90;98.00;;;;;;5071127;28;20462;-68
2022/01/14 02:34:41;;;;;;;1.10;1.00;;;-1.00;98.00;;;;;;5072252;28;20495;-68
2022/01/14 02:37:09;;;;;;;1.93;1.33;;;-1.00;98.00;;;;;;5072274;28;20497;-67
2022/01/14 02:39:36;;;;;;;2.83;2.47;;;-1.00;98.00;;;;;;5071020;28;20587;-68
2022/01/14 02:42:09;;;;;;;1.57;1.40;;;-1.10;98.00;;;;;;5072046;28;20518;-67
2022/01/14 02:44:37;;;;;;;1.53;1.47;;;-1.10;98.00;;;;;;5072499;28;20584;-68
2022/01/14 02:47:06;;;;;;;1.20;1.20;;;-1.10;98.00;;;;;;5071996;28;20810;-68
2022/01/14 02:49:36;;;;;;;1.10;1.00;;;-1.10;98.00;;;;;;5071977;28;20447;-66
2022/01/14 02:52:05;;;;;;;1.30;1.25;;;-1.10;98.00;;;;;;5072159;28;20493;-68
2022/01/14 02:54:41;;;;;;;3.10;2.00;;;-1.10;98.00;;;;;;5071935;28;20616;-67
2022/01/14 02:57:09;;;;;;;1.70;1.70;;;-1.10;98.00;;;;;;5071904;28;20454;-68
2022/01/14 02:59:39;;;;;;;1.30;1.23;;;-1.10;98.00;;;;;;5072010;28;20456;-67
2022/01/14 03:02:09;;;;;;;2.90;2.20;;;-1.10;98.00;;;;;;5071849;28;20488;-67
2022/01/14 03:04:39;;;;;;;1.13;1.13;;;-1.20;98.00;;;;;;5072003;28;20461;-68
2022/01/14 03:07:08;;;;;;;5.72;1.38;;;-1.10;98.00;;;;;;5071772;28;20811;-67
2022/01/14 03:09:38;;;;;;;1.57;1.47;;;-1.00;98.00;;;;;;5072157;28;20226;-67
2022/01/14 03:12:06;;;;;;;1.83;1.45;;;-0.90;98.00;;;;;;5071769;28;20520;-67
2022/01/14 03:14:33;;;;;;;1.20;1.20;;;-0.80;98.00;;;;;;5070640;28;20283;-67
2022/01/14 03:17:01;;;;;;;1.10;1.07;;;-0.80;98.00;;;;;;5072084;28;20464;-67
2022/01/14 03:19:28;;;;;;;2.37;2.17;;;-0.90;98.00;;;;;;5071748;28;21001;-67
2022/01/14 03:22:06;;;;;;;3.20;2.35;;;-1.00;98.00;;;;;;5071574;28;20489;-67
2022/01/14 03:27:25;;;;;;;3.77;2.20;;;-0.90;98.00;;;;;;5014403;28;20457;-66
2022/01/14 03:29:52;;;;;;;2.27;1.33;;;-1.00;98.00;;;;;;5071727;28;20451;-68
2022/01/14 03:32:18;;;;;;;2.40;2.00;;;-1.00;98.00;;;;;;5071704;28;20475;-68
2022/01/14 03:34:45;;;;;;;1.40;1.30;;;-1.10;98.00;;;;;;5071760;28;20329;-67
2022/01/14 03:37:12;;;;;;;2.70;2.00;;;-1.10;98.00;;;;;;5071769;28;20246;-66
2022/01/14 03:39:39;;;;;;;3.20;2.67;;;-0.90;98.00;;;;;;5070776;28;20503;-68
2022/01/14 03:42:07;;;;;;;2.47;1.87;;;-0.80;98.00;;;;;;5070399;28;20726;-67
2022/01/14 03:44:35;;;;;;;2.03;1.93;;;-0.80;98.00;;;;;;5071746;28;20471;-67
2022/01/14 03:49:45;;;;;;;1.20;1.20;;;-1.00;98.00;;;;;;5071402;28;20457;-68
2022/01/14 03:52:12;;;;;;;1.10;1.10;;;-1.00;98.00;;;;;;5071670;28;20454;-67
2022/01/14 03:54:39;;;;;;;3.47;1.80;;;-1.00;98.00;;;;;;5070295;28;20519;-67
2022/01/14 03:57:06;;;;;;;1.90;1.80;;;-1.10;98.00;;;;;;5071060;28;21029;-67
2022/01/14 03:59:35;;;;;;;1.90;1.58;;;-1.10;98.00;;;;;;5071610;28;20454;-67
2022/01/14 04:02:02;;;;;;;2.53;1.63;;;-1.10;98.00;;;;;;5071154;28;20321;-67
2022/01/14 04:04:29;;;;;;;3.20;3.00;;;-1.10;98.00;;;;;;5070008;28;20520;-68
2022/01/14 04:06:56;;;;;;;3.33;1.57;;;-1.10;98.00;;;;;;5054811;28;20206;-68
2022/01/14 04:09:24;;;;;;;4.07;3.75;;;-1.00;98.00;;;;;;5075140;28;20504;-67
2022/01/14 04:11:51;;;;;;;5.90;2.13;;;-1.00;98.00;;;;;;5073790;28;20670;-68
2022/01/14 04:17:04;;;;;;;3.17;2.90;;;-1.20;98.00;;;;;;5075169;28;20944;-68
2022/01/14 04:19:35;;;;;;;3.43;2.00;;;-1.20;98.00;;;;;;5074922;28;20536;-67
2022/01/14 04:22:02;;;;;;;2.85;1.85;;;-1.10;98.00;;;;;;5074674;28;20964;-66
2022/01/14 04:24:30;;;;;;;1.47;1.37;;;-1.00;98.00;;;;;;5074939;28;20208;-67
2022/01/14 04:26:57;;;;;;;2.20;2.03;;;-1.00;98.00;;;;;;5074649;28;20491;-67
2022/01/14 04:29:24;;;;;;;1.20;1.20;;;-1.00;98.00;;;;;;5074911;28;20548;-68
2022/01/14 04:31:51;;;;;;;1.57;1.53;;;-1.00;98.00;;;;;;5074708;28;20856;-67
2022/01/14 04:34:19;;;;;;;5.47;2.80;;;-1.20;98.00;;;;;;5073595;28;20497;-68
2022/01/14 04:36:46;;;;;;;1.10;1.08;;;-1.20;98.00;;;;;;5074526;28;20869;-66
2022/01/14 04:39:13;;;;;;;2.00;1.73;;;-1.30;98.00;;;;;;5074575;28;20250;-67
2022/01/14 04:41:40;;;;;;;1.33;1.30;;;-1.40;98.00;;;;;;5073391;28;20260;-68
2022/01/14 04:44:07;;;;;;;2.65;2.17;;;-1.50;98.00;;;;;;5072780;28;20689;-67
2022/01/14 04:49:20;;;;;;;1.10;1.07;;;-1.40;98.00;;;;;;5073657;28;20445;-68
2022/01/14 04:51:47;;;;;;;1.27;1.23;;;-1.40;98.00;;;;;;5074524;28;20947;-68
2022/01/14 04:54:14;;;;;;;1.20;1.10;;;-1.20;98.00;;;;;;5073498;28;20462;-67
2022/01/14 04:56:41;;;;;;;2.00;1.90;;;-1.20;98.00;;;;;;5074167;28;20541;-67
2022/01/14 04:59:08;;;;;;;1.20;1.20;;;-1.30;98.00;;;;;;5073410;28;20282;-67
2022/01/14 05:01:35;;;;;;;1.40;1.40;;;-1.30;98.00;;;;;;5073213;28;20521;-67
2022/01/14 05:04:02;;;;;;;2.58;1.73;;;-1.20;98.00;;;;;;5074461;28;20857;-67
2022/01/14 05:06:31;;;;;;;3.72;2.17;;;-1.20;98.00;;;;;;5074503;28;20204;-68
2022/01/14 05:08:58;;;;;;;2.07;1.93;;;-1.10;98.00;;;;;;5074250;28;20212;-67
2022/01/14 05:11:37;;;;;;;1.60;1.50;;;-1.20;98.00;;;;;;5074336;28;20519;-67
2022/01/14 05:14:05;;;;;;;1.40;1.30;;;-1.30;98.00;;;;;;5073324;28;20955;-68
2022/01/14 05:16:32;;;;;;;1.77;1.33;;;-1.40;98.00;;;;;;5073030;28;20458;-67
2022/01/14 05:18:59;;;;;;;1.33;1.10;;;-1.40;98.00;;;;;;5073632;28;20457;-66
2022/01/14 05:21:26;;;;;;;2.47;2.10;;;-1.40;98.00;;;;;;5073627;28;20507;-67
2022/01/14 05:23:56;;;;;;;1.10;1.00;;;-1.40;98.00;;;;;;5073710;28;20831;-67
2022/01/14 05:26:23;;;;;;;1.60;1.40;;;-1.40;98.00;;;;;;5072533;28;20222;-67
2022/01/14 05:28:50;;;;;;;2.60;1.70;;;-1.40;98.00;;;;;;5073466;28;20497;-68
2022/01/14 05:31:17;;;;;;;1.55;1.42;;;-1.40;98.00;;;;;;5073704;28;20490;-68
2022/01/14 05:33:46;;;;;;;1.60;1.58;;;-1.30;98.00;;;;;;5073499;28;20212;-67
2022/01/14 05:36:13;;;;;;;2.47;2.28;;;-1.30;98.00;;;;;;5073503;28;20289;-68
2022/01/14 05:38:40;;;;;;;5.30;2.50;;;-1.40;98.00;;;;;;5071986;28;20234;-67
2022/01/14 05:41:09;;;;;;;2.35;1.98;;;-1.40;98.00;;;;;;5073498;28;20495;-68
2022/01/14 05:43:36;;;;;;;1.97;1.63;;;-1.40;98.00;;;;;;5073338;28;20273;-68
2022/01/14 05:46:02;;;;;;;2.40;2.20;;;-1.30;98.00;;;;;;5073205;28;20493;-67
2022/01/14 05:48:30;;;;;;;1.48;1.38;;;-1.30;98.00;;;;;;5073054;28;20504;-67
2022/01/14 05:50:57;;;;;;;4.30;3.38;;;-1.40;98.00;;;;;;5073364;28;20291;-67
2022/01/14 05:53:24;;;;;;;5.30;3.97;;;-1.50;98.00;;;;;;5072103;28;20212;-68
2022/01/14 05:55:52;;;;;;;1.20;1.20;;;-1.40;98.00;;;;;;5073278;28;20227;-67
2022/01/14 05:58:22;;;;;;;1.85;1.75;;;-1.40;98.00;;;;;;5073098;28;20531;-68
2022/01/14 06:00:49;;;;;;;4.03;2.40;;;-1.40;98.00;;;;;;5073282;28;20204;-68
2022/01/14 06:03:16;;;;;;;2.27;2.17;;;-1.60;98.00;;;;;;5072941;28;20486;-67
2022/01/14 06:05:43;;;;;;;1.10;1.10;;;-1.60;98.00;;;;;;5071837;28;20548;-67
2022/01/14 06:08:10;;;;;;;1.87;1.73;;;-1.50;98.00;;;;;;5072985;28;20501;-66
2022/01/14 06:10:37;;;;;;;3.23;2.30;;;-1.50;98.00;;;;;;5071901;28;20461;-67
2022/01/14 06:13:04;;;;;;;1.63;1.63;;;-1.50;98.00;;;;;;5072903;28;20990;-68
2022/01/14 06:15:32;;;;;;;5.73;1.97;;;-1.60;98.00;;;;;;5072946;28;20292;-68
2022/01/14 06:17:59;;;;;;;3.50;2.53;;;-1.70;98.00;;;;;;5072776;28;20487;-67
2022/01/14 06:20:26;;;;;;;1.60;1.45;;;-1.70;98.00;;;;;;5072843;28;20458;-66
2022/01/14 06:22:54;;;;;;;1.13;1.07;;;-1.80;98.00;;;;;;5072309;28;20687;-67
2022/01/14 06:25:21;;;;;;;1.63;1.40;;;-1.70;98.00;;;;;;5072690;28;20490;-67
2022/01/14 06:27:48;;;;;;;1.65;1.40;;;-1.70;98.00;;;;;;5072673;28;20242;-67
2022/01/14 06:30:16;;;;;;;1.10;1.10;;;-1.70;98.00;;;;;;5072417;28;20298;-67
2022/01/14 06:32:45;;;;;;;2.33;1.75;;;-1.70;98.00;;;;;;5055192;28;20238;-66
2022/01/14 06:35:15;;;;;;;2.70;2.00;;;-1.80;98.00;;;;;;5072921;28;20256;-67
2022/01/14 06:37:43;;;;;;;1.60;1.52;;;-1.70;98.00;;;;;;5072545;28;20493;-66
2022/01/14 06:40:12;;;;;;;1.40;1.25;;;-1.70;98.00;;;;;;5072586;28;20293;-67
2022/01/14 06:42:39;;;;;;;1.13;1.08;;;-1.70;98.00;;;;;;5072175;28;20657;-67
2022/01/14 06:45:11;;;;;;;3.60;2.28;;;-1.70;98.00;;;;;;5072197;28;20288;-67
2022/01/14 06:47:38;;;;;;;2.17;2.03;;;-1.80;98.00;;;;;;5072150;28;20282;-67
2022/01/14 06:50:16;;;;;;;2.60;2.00;;;-1.80;98.00;;;;;;5072131;28;20513;-68
2022/01/14 06:52:43;;;;;;;2.60;1.45;;;-1.80;98.00;;;;;;5071942;28;20282;-67
2022/01/14 06:55:11;;;;;;;2.77;2.00;;;-1.70;98.00;;;;;;5072087;28;20200;-68
2022/01/14 06:57:39;;;;;;;1.45;1.38;;;-1.70;98.00;;;;;;5070124;28;20487;-67
2022/01/14 07:00:07;;;;;;;2.28;1.50;;;-1.60;98.00;;;;;;5072088;28;20266;-67
2022/01/14 07:02:34;;;;;;;1.48;1.30;;;-1.60;98.00;;;;;;5071938;28;20262;-68
2022/01/14 07:05:01;;;;;;;2.30;1.75;;;-1.60;98.00;;;;;;5072028;28;20624;-67
2022/01/14 07:07:30;;;;;;;3.20;2.30;;;-1.70;98.00;;;;;;5072281;28;20276;-67
2022/01/14 07:09:57;;;;;;;1.20;1.10;;;-1.60;98.00;;;;;;5070639;28;20240;-68
2022/01/14 07:12:25;;;;;;;9.02;2.38;;;-1.60;98.00;;;;;;5071859;28;20627;-69
2022/01/14 07:14:52;;;;;;;1.58;1.42;;;-1.50;98.00;;;;;;5071718;28;20245;-67
2022/01/14 07:17:19;;;;;;;2.27;2.10;;;-1.50;98.00;;;;;;5071792;28;20246;-67
2022/01/14 07:19:50;;;;;;;1.60;1.47;;;-1.50;98.00;;;;;;5071795;28;20999;-67
2022/01/14 07:22:17;;;;;;;1.73;1.70;;;-1.40;98.00;;;;;;5071572;28;20512;-67
2022/01/14 07:24:46;;;;;;;3.20;2.80;;;-1.60;98.00;;;;;;5071721;28;20546;-68
2022/01/14 07:27:13;;;;;;;3.13;2.63;;;-1.60;98.00;;;;;;5071633;28;20603;-67
2022/01/14 07:29:40;;;;;;;3.38;1.42;;;-1.60;98.00;;;;;;5071462;28;20505;-67
2022/01/14 07:32:08;;;;;;;1.50;1.47;;;-1.70;98.00;;;;;;5071583;28;20298;-67
2022/01/14 07:34:36;;;;;;;1.20;1.20;;;-1.70;98.00;;;;;;5071730;28;20491;-67
2022/01/14 07:37:03;;;;;;;5.63;3.30;;;-1.60;98.00;;;;;;5071342;28;20206;-68
2022/01/14 07:39:30;;;;;;;1.80;1.70;;;-1.40;98.00;;;;;;5071882;28;20268;-67
2022/01/14 07:41:58;;;;;;;3.20;3.00;;;-1.40;98.00;;;;;;5072991;28;20287;-68
2022/01/14 07:44:25;;;;;;;1.20;1.20;;;-1.40;98.00;;;;;;5075914;28;20493;-68
2022/01/14 07:46:52;;;;;;;2.75;1.80;;;-1.30;98.00;;;;;;5075597;28;20222;-66
2022/01/14 07:49:19;;;;;;;1.73;1.63;;;-1.50;98.00;;;;;;5075819;28;20226;-67
2022/01/14 07:51:46;;;;;;;2.80;1.90;;;-1.50;98.00;;;;;;5075837;28;20242;-68
2022/01/14 07:54:14;;;;;;;1.83;1.73;;;-1.70;98.00;;;;;;5075864;28;20527;-67
2022/01/14 07:56:45;;;;;;;2.13;1.93;;;-1.70;98.00;;;;;;5075681;28;20462;-66
2022/01/14 07:59:18;;;;;;;3.20;3.00;;;-1.60;98.00;;;;;;5075711;28;20462;-67
2022/01/14 08:01:47;;;;;;;4.40;2.20;;;-1.60;98.00;;;;;;5075463;28;20461;-68
2022/01/14 08:04:16;;;;;;;1.40;1.30;;;-1.50;98.00;;;;;;5075385;28;20293;-67
2022/01/14 08:06:47;;;;;;;1.35;1.33;;;-1.50;98.00;;;;;;5075422;28;20242;-67
2022/01/14 08:09:15;;;;;;;2.50;1.73;;;-1.50;98.00;;;;;;5075185;28;20294;-68
2022/01/14 08:11:43;;;;;;;1.10;1.10;;;-1.40;98.00;;;;;;5075529;28;20232;-67
2022/01/14 08:14:11;;;;;;;1.40;1.30;;;-1.40;98.00;;;;;;5075068;28;20239;-67
2022/01/14 08:16:42;;;;;;;1.40;1.30;;;-1.30;98.00;;;;;;5074910;28;20234;-67
2022/01/14 08:19:09;;;;;;;2.80;2.23;;;-1.20;98.00;;;;;;5074869;28;20212;-68
2022/01/14 08:21:36;;;;;;;2.57;1.77;;;-1.20;98.00;;;;;;5075060;28;20951;-67
2022/01/14 08:24:04;;;;;;;1.75;1.70;;;-1.20;98.00;;;;;;5074684;28;20525;-67
2022/01/14 08:26:31;;;;;;;1.45;1.35;;;-1.20;98.00;;;;;;5075010;28;20238;-67
2022/01/14 08:28:58;;;;;;;1.20;1.13;;;-1.20;98.00;;;;;;5074745;28;20248;-67
2022/01/14 08:31:24;;;;;;;2.07;1.93;;;-1.20;98.00;;;;;;5074743;28;20204;-67
2022/01/14 08:33:53;;;;;;;1.30;1.27;;;-1.30;98.00;;;;;;5074478;28;20497;-67
2022/01/14 08:36:20;;;;;;;1.60;1.53;;;-1.20;98.00;;;;;;5074687;28;20458;-68
2022/01/14 08:38:47;;;;;;;1.50;1.40;;;-1.10;98.00;;;;;;5073363;28;20524;-67
2022/01/14 08:41:14;;;;;;;1.60;1.50;;;-0.90;98.00;;;;;;5086560;28;20542;-70
2022/01/14 08:43:41;;;;;;;1.30;1.20;;;-0.90;98.00;;;;;;5102015;28;20519;-68
2022/01/14 08:46:08;;;;;;;3.00;2.03;;;-0.80;98.00;;;;;;5094040;28;20968;-67
2022/01/14 08:48:35;;;;;;;3.03;2.53;;;-0.70;98.00;;;;;;5101607;28;20490;-67
2022/01/14 08:51:03;;;;;;;1.50;1.40;;;-0.60;98.00;;;;;;5104878;28;20496;-67
2022/01/14 08:53:31;;;;;;;2.33;2.20;;;-0.70;98.00;;;;;;5110651;28;20459;-67
2022/01/14 08:55:58;;;;;;;10.00;2.63;;;-0.70;98.00;;;;;;5109107;28;20456;-67
2022/01/14 08:58:25;;;;;;;1.47;1.37;;;-0.60;98.00;;;;;;5111319;28;20489;-67
2022/01/14 09:00:52;;;;;;;1.30;1.23;;;-0.40;98.00;;;;;;5102344;28;20491;-67
2022/01/14 09:03:19;;;;;;;2.30;2.10;;;-0.40;98.00;;;;;;5104573;28;20491;-69
2022/01/14 09:05:46;;;;;;;2.80;2.17;;;-0.40;98.00;;;;;;5078079;28;20498;-68
2022/01/14 09:08:14;;;;;;;3.57;2.43;;;-0.30;98.00;;;;;;5095556;28;20456;-69
2022/01/14 09:10:41;;;;;;;1.50;1.40;;;-0.30;98.00;;;;;;5101639;28;20481;-69
2022/01/14 09:13:08;;;;;;;3.33;2.22;;;-0.30;98.00;;;;;;5090683;28;20248;-68
2022/01/14 09:15:36;;;;;;;4.90;2.50;;;-0.30;98.00;;;;;;5106288;28;20258;-69
2022/01/14 09:18:04;;;;;;;3.80;1.83;;;-0.20;98.00;;;;;;5082099;28;20470;-69
2022/01/14 09:20:32;;;;;;;1.30;1.20;;;-0.10;98.00;;;;;;5077705;28;20520;-69
2022/01/14 09:22:59;;;;;;;1.83;1.67;;;0.00;98.00;;;;;;5073232;28;20487;-70
2022/01/14 09:25:27;;;;;;;1.93;1.83;;;0.00;98.00;;;;;;5056274;28;20499;-69
2022/01/14 09:27:54;;;;;;;2.57;2.33;;;0.10;98.00;;;;;;5073656;28;20462;-70
2022/01/14 09:30:23;;;;;;;3.50;3.20;;;0.20;98.00;;;;;;5073797;28;20459;-69
2022/01/14 09:32:50;;;;;;;2.77;2.57;;;0.30;98.00;;;;;;5073026;28;20495;-69
2022/01/14 09:35:18;;;;;;;2.33;2.13;;;0.50;98.00;;;;;;5072718;28;20487;-69
2022/01/14 09:37:45;;;;;;;1.60;1.50;;;0.50;98.00;;;;;;5072429;28;20491;-70
2022/01/14 09:40:16;;;;;;;7.50;3.47;;;0.50;98.00;;;;;;5073014;28;20471;-69
2022/01/14 09:42:48;;;;;;;1.97;1.87;;;0.60;98.00;;;;;;5073027;28;20486;-67
2022/01/14 09:45:15;;;;;;;1.93;1.73;;;0.80;98.00;;;;;;5073338;28;20462;-68
2022/01/14 09:47:47;;;;;;;2.80;1.60;;;0.90;98.00;;;;;;5072993;28;20472;-68
2022/01/14 09:50:14;;;;;;;3.60;2.20;;;0.90;98.00;;;;;;5073209;28;20502;-68
2022/01/14 09:52:41;;;;;;;2.77;2.27;;;0.90;98.00;;;;;;5072787;28;20483;-68
2022/01/14 09:55:09;;;;;;;1.73;1.70;;;1.00;98.00;;;;;;5073162;28;20533;-69
2022/01/14 09:57:36;;;;;;;3.77;2.33;;;1.10;98.00;;;;;;5072846;28;20452;-68
2022/01/14 10:00:06;;;;;;;2.13;1.90;;;1.20;98.00;;;;;;5072511;28;20513;-69
2022/01/14 10:02:36;;;;;;;1.77;1.70;;;1.30;98.00;;;;;;5071503;28;20513;-69
2022/01/14 10:05:05;;;;;;;1.40;1.30;;;1.40;98.00;;;;;;5071977;28;20462;-69
2022/01/14 10:07:33;;;;;;;1.40;1.30;;;1.40;98.00;;;;;;5072492;28;20488;-69
2022/01/14 10:10:01;;;;;;;2.00;1.90;;;1.40;98.00;;;;;;5072725;28;20457;-67
2022/01/14 10:12:33;;;;;;;2.77;2.57;;;1.30;98.00;;;;;;5072471;28;20471;-65
2022/01/14 10:15:08;;;;;;;1.43;1.33;;;1.20;98.00;;;;;;5072703;28;20452;-68
2022/01/14 10:17:37;;;;;;;3.73;2.63;;;1.20;98.00;;;;;;5072668;28;20483;-69
2022/01/14 10:20:08;;;;;;;1.10;1.10;;;1.20;98.00;;;;;;5072624;28;20458;-66
2022/01/14 10:22:40;;;;;;;1.80;1.70;;;1.30;98.00;;;;;;5072175;28;20938;-68
2022/01/14 10:25:10;;;;;;;4.40;3.30;;;1.40;98.00;;;;;;5072710;28;21018;-68
2022/01/14 10:27:40;;;;;;;2.60;2.40;;;1.40;98.00;;;;;;5072307;28;20548;-69
2022/01/14 10:30:16;;;;;;;2.13;1.93;;;1.60;98.00;;;;;;5072339;28;20488;-68
2022/01/14 10:32:46;;;;;;;1.70;1.60;;;1.70;98.00;;;;;;5072598;28;20463;-66
2022/01/14 10:35:21;;;;;;;1.90;1.87;;;1.70;98.00;;;;;;5096068;28;20892;-67
2022/01/14 10:37:48;;;;;;;1.30;1.20;;;1.80;98.00;;;;;;5099553;28;20545;-68
2022/01/14 10:40:23;;;;;;;1.87;1.70;;;1.80;98.00;;;;;;5108431;28;20462;-68
2022/01/14 10:42:51;;;;;;;3.47;2.70;;;1.90;98.00;;;;;;5095028;28;21008;-64
2022/01/14 10:45:22;;;;;;;2.00;1.90;;;2.00;98.00;;;;;;5096760;28;20451;-64
2022/01/14 10:47:58;;;;;;;5.03;2.30;;;2.10;98.00;;;;;;5100617;28;20465;-66
2022/01/14 10:50:33;;;;;;;1.60;1.30;;;2.20;98.00;;;;;;5107598;28;20502;-64
2022/01/14 10:53:04;;;;;;;3.57;2.10;;;2.50;98.00;;;;;;5101168;28;20470;-65
2022/01/14 10:55:35;;;;;;;2.40;2.20;;;2.60;98.00;;;;;;5089975;28;20520;-64
2022/01/14 10:58:04;;;;;;;3.40;3.20;;;2.80;98.00;;;;;;5090790;28;20460;-65
2022/01/14 11:00:39;;;;;;;2.67;2.47;;;2.90;98.00;;;;;;5108953;28;20961;-63
2022/01/14 11:03:07;;;;;;;2.23;2.10;;;3.00;98.00;;;;;;5081544;28;20479;-64
2022/01/14 11:05:35;;;;;;;1.87;1.50;;;3.10;98.00;;;;;;5091828;28;20494;-63
2022/01/14 11:08:04;;;;;;;2.47;2.13;;;3.20;98.00;;;;;;5098690;28;20999;-64
2022/01/14 11:10:33;;;;;;;1.70;1.50;;;3.30;98.00;;;;;;5088296;28;20455;-63
2022/01/14 11:13:01;;;;;;;2.67;2.23;;;3.50;98.00;;;;;;5099189;28;20966;-64
2022/01/14 11:15:32;;;;;;;1.93;1.83;;;3.60;98.00;;;;;;5075850;28;20873;-64
2022/01/14 11:18:02;;;;;;;1.47;1.03;;;3.80;98.00;;;;;;5092919;28;20469;-63
2022/01/14 11:23:14;;;;;;;1.97;1.50;;;4.00;98.00;;;;;;5099718;28;20519;-63
2022/01/14 11:23:22;;;;;;;2.40;2.20;;;4.20;98.00;;;;;;5108165;28;20483;-63
2022/01/14 11:26:00;;;;;;;2.10;1.63;;;4.40;98.00;;;;;;5106836;28;20459;-63
2022/01/14 11:28:30;;;;;;;2.13;1.73;;;4.60;98.00;;;;;;5102235;28;20895;-64
2022/01/14 11:30:59;;;;;;;2.43;1.53;;;4.90;98.00;;;;;;5098632;28;20484;-62
2022/01/14 11:33:40;;;;;;;1.30;1.27;;;5.10;98.00;;;;;;5091147;28;20543;-62
2022/01/14 11:36:07;;;;;;;1.60;1.50;;;5.20;98.00;;;;;;5090155;28;20452;-64
2022/01/14 11:38:40;;;;;;;1.60;1.40;;;5.40;98.00;;;;;;5097459;28;20492;-64
2022/01/14 11:41:08;;;;;;;2.23;1.67;;;5.60;98.00;;;;;;5100403;28;20510;-62
2022/01/14 11:43:52;;;;;;;1.87;1.77;;;5.70;98.00;;;;;;5089223;28;20513;-62
2022/01/14 11:46:47;;;;;;;1.83;1.47;;;5.80;98.00;;;;;;5090450;28;20511;-64
2022/01/14 11:49:35;;;;;;;4.20;2.40;;;5.80;98.00;;;;;;5094754;28;20459;-63
2022/01/14 11:52:05;;;;;;;3.27;1.57;;;6.00;98.00;;;;;;5092189;28;20485;-64
2022/01/14 11:54:40;;;;;;;1.90;1.60;;;6.10;98.00;;;;;;5105438;28;20821;-63
2022/01/14 11:57:08;;;;;;;1.70;1.60;;;6.20;98.00;;;;;;5100402;28;20850;-63
2022/01/14 11:59:47;;;;;;;1.57;1.40;;;6.30;98.00;;;;;;5106010;28;20870;-63
2022/01/14 12:02:48;;;;;;;2.07;1.97;;;6.50;98.00;;;;;;5099651;28;20951;-64
2022/01/14 12:05:26;;;;;;;3.13;2.23;;;6.60;98.00;;;;;;5088538;28;20490;-64
2022/01/14 12:08:24;;;;;;;1.83;1.57;;;6.70;98.00;;;;;;5094629;28;21027;-63
2022/01/14 12:10:57;;;;;;;1.50;1.37;;;7.00;98.00;;;;;;5098943;28;20805;-63
2022/01/14 12:13:39;;;;;;;1.37;1.30;;;7.20;98.00;;;;;;5099785;28;20544;-65
2022/01/14 12:16:09;;;;;;;1.60;1.50;;;7.40;98.00;;;;;;5081236;28;20461;-64
2022/01/14 12:19:14;;;;;;;4.83;1.67;;;7.40;98.00;;;;;;5099638;28;20490;-64
2022/01/14 12:21:58;;;;;;;1.70;1.30;;;7.50;98.00;;;;;;5101196;28;20466;-65
2022/01/14 12:24:33;;;;;;;1.40;1.20;;;7.70;98.00;;;;;;5089794;28;20529;-63
2022/01/14 12:27:24;;;;;;;2.47;1.97;;;7.80;98.00;;;;;;5090385;28;20488;-64
2022/01/14 12:30:00;;;;;;;4.80;2.13;;;8.00;98.00;;;;;;5089317;28;20551;-65
2022/01/14 12:32:34;;;;;;;1.80;1.43;;;8.30;98.00;;;;;;5102513;28;20465;-64
2022/01/14 12:35:05;;;;;;;2.30;1.77;;;8.60;98.00;;;;;;5106995;28;20551;-65
2022/01/14 12:37:35;;;;;;;2.00;1.20;;;8.90;98.00;;;;;;5102043;28;20494;-64
2022/01/14 12:40:07;;;;;;;2.40;1.70;;;9.20;98.00;;;;;;5106717;28;20494;-63
2022/01/14 12:42:33;;;;;;;1.90;1.80;;;9.20;98.00;;;;;;5094562;28;20567;-63
2022/01/14 12:45:03;;;;;;;3.50;1.60;;;9.20;98.00;;;;;;5082026;28;20606;-65
2022/01/14 12:47:33;;;;;;;2.27;1.30;;;9.30;98.00;;;;;;5088942;28;20487;-65
2022/01/14 12:50:05;;;;;;;1.50;1.50;;;10.10;98.00;;;;;;5075614;28;20493;-64
2022/01/14 12:52:45;;;;;;;2.50;1.50;;;11.50;98.00;;;;;;5074619;28;20491;-64
2022/01/14 12:55:12;;;;;;;1.43;1.37;;;12.10;95.80;;;;;;5092112;28;20536;-64
2022/01/14 12:57:39;;;;;;;3.53;1.87;;;12.20;92.50;;;;;;5093523;28;20868;-64
2022/01/14 13:00:09;;;;;;;2.50;1.87;;;12.20;92.60;;;;;;5103384;28;20554;-64
2022/01/14 13:02:36;;;;;;;3.00;1.43;;;12.20;92.30;;;;;;5099643;28;20852;-64
2022/01/14 13:05:06;;;;;;;3.30;1.80;;;12.20;91.50;;;;;;5101550;28;20577;-64
2022/01/14 13:07:37;;;;;;;2.13;1.70;;;12.00;91.40;;;;;;5109954;28;20500;-65
2022/01/14 13:10:05;;;;;;;1.83;1.80;;;12.10;92.30;;;;;;5094104;28;20482;-64
2022/01/14 13:12:36;;;;;;;1.93;1.83;;;12.10;91.80;;;;;;5093523;28;20464;-64
2022/01/14 13:15:05;;;;;;;3.03;2.50;;;12.20;91.60;;;;;;5089056;28;20969;-65
2022/01/14 13:17:42;;;;;;;3.03;1.67;;;12.40;91.90;;;;;;5094905;28;20456;-65
2022/01/14 13:20:11;;;;;;;2.10;1.70;;;12.40;91.30;;;;;;5094349;28;21021;-65
2022/01/14 13:22:42;;;;;;;3.00;1.73;;;12.50;90.90;;;;;;5094155;28;20514;-67
2022/01/14 13:25:11;;;;;;;5.83;2.20;;;12.50;90.30;;;;;;5093529;28;20485;-64